createdAt,value
2022-10-09T00:01:33.750Z,99.90
2022-10-09T00:04:02.040Z,99.90
2022-10-09T00:06:33.519Z,99.90
2022-10-09T00:09:03.512Z,99.90
2022-10-09T00:11:34.175Z,99.90
2022-10-09T00:14:04.507Z,99.90
2022-10-09T00:16:34.246Z,99.90
2022-10-09T00:19:04.435Z,99.90
2022-10-09T00:21:34.470Z,99.90
2022-10-09T00:24:06.215Z,99.90
2022-10-09T00:26:34.749Z,99.90
2022-10-09T00:29:03.610Z,99.90
2022-10-09T00:31:33.250Z,99.90
2022-10-09T00:34:01.655Z,99.90
2022-10-09T00:36:30.181Z,99.90
2022-10-09T00:38:58.537Z,99.90
2022-10-09T00:41:33.926Z,99.90
2022-10-09T00:44:24.650Z,99.90
2022-10-09T00:46:54.950Z,99.90
2022-10-09T00:49:33.624Z,99.90
2022-10-09T00:52:07.340Z,99.90
2022-10-09T00:54:42.546Z,99.90
2022-10-09T00:57:11.673Z,99.90
2022-10-09T00:59:41.080Z,99.90
2022-10-09T01:02:11.268Z,99.90
2022-10-09T01:04:39.783Z,99.90
2022-10-09T01:07:40.193Z,99.90
2022-10-09T01:10:28.162Z,99.90
2022-10-09T01:13:10.506Z,99.90
2022-10-09T01:15:49.296Z,99.90
2022-10-09T01:18:30.964Z,99.90
2022-10-09T01:21:09.448Z,99.90
2022-10-09T01:24:13.797Z,99.90
2022-10-09T01:27:09.114Z,99.90
2022-10-09T01:29:43.272Z,99.90
2022-10-09T01:32:16.242Z,99.90
2022-10-09T01:34:47.357Z,99.90
2022-10-09T01:37:20.196Z,99.90
2022-10-09T01:39:51.229Z,99.90
2022-10-09T01:42:25.485Z,99.90
2022-10-09T01:44:53.727Z,99.90
2022-10-09T01:47:23.940Z,99.90
2022-10-09T01:49:59.674Z,99.90
2022-10-09T01:52:44.785Z,99.90
2022-10-09T01:55:38.164Z,99.90
2022-10-09T01:58:19.300Z,99.90
2022-10-09T02:00:56.311Z,99.90
2022-10-09T02:03:29.827Z,99.90
2022-10-09T02:06:01.559Z,99.90
2022-10-09T02:08:33.709Z,99.90
2022-10-09T02:11:04.266Z,99.90
2022-10-09T02:13:36.609Z,99.90
2022-10-09T02:16:15.950Z,99.90
2022-10-09T02:18:47.257Z,99.90
2022-10-09T02:21:23.780Z,99.90
2022-10-09T02:23:53.993Z,99.90
2022-10-09T02:26:23.116Z,99.90
2022-10-09T02:28:53.199Z,99.90
2022-10-09T02:31:27.899Z,99.90
2022-10-09T02:33:57.603Z,99.90
2022-10-09T02:36:27.854Z,99.90
2022-10-09T02:38:57.699Z,99.90
2022-10-09T02:41:26.470Z,99.90
2022-10-09T02:43:56.822Z,99.90
2022-10-09T02:46:25.271Z,99.90
2022-10-09T02:48:54.207Z,99.90
2022-10-09T02:51:22.699Z,99.90
2022-10-09T02:53:54.121Z,99.90
2022-10-09T02:56:22.978Z,99.90
2022-10-09T02:58:52.625Z,99.90
2022-10-09T03:01:22.517Z,99.90
2022-10-09T03:03:51.172Z,99.90
2022-10-09T03:06:23.021Z,99.90
2022-10-09T03:08:53.077Z,99.90
2022-10-09T03:11:25.126Z,99.90
2022-10-09T03:13:54.405Z,99.90
2022-10-09T03:16:26.318Z,99.90
2022-10-09T03:18:57.031Z,99.90
2022-10-09T03:21:28.209Z,99.90
2022-10-09T03:23:57.415Z,99.90
2022-10-09T03:26:28.820Z,99.90
2022-10-09T03:28:57.358Z,99.90
2022-10-09T03:34:17.544Z,99.90
2022-10-09T03:36:45.785Z,99.90
2022-10-09T03:39:14.423Z,99.90
2022-10-09T03:41:42.880Z,99.90
2022-10-09T03:44:11.492Z,99.90
2022-10-09T03:46:41.198Z,99.90
2022-10-09T03:49:09.785Z,99.90
2022-10-09T03:51:38.012Z,99.90
2022-10-09T03:54:07.826Z,99.90
2022-10-09T03:56:36.215Z,99.90
2022-10-09T03:59:07.848Z,99.90
2022-10-09T04:01:36.376Z,99.90
2022-10-09T04:04:06.103Z,99.90
2022-10-09T04:06:35.846Z,99.90
2022-10-09T04:09:04.185Z,99.90
2022-10-09T04:11:32.870Z,99.90
2022-10-09T04:14:01.711Z,99.90
2022-10-09T04:16:30.221Z,99.90
2022-10-09T04:18:58.505Z,99.90
2022-10-09T04:21:28.680Z,99.90
2022-10-09T04:23:57.202Z,99.90
2022-10-09T04:26:25.372Z,99.90
2022-10-09T04:28:53.876Z,99.90
2022-10-09T04:31:24.615Z,99.90
2022-10-09T04:33:56.237Z,99.90
2022-10-09T04:36:24.892Z,99.90
2022-10-09T04:38:54.983Z,99.90
2022-10-09T04:41:23.234Z,99.90
2022-10-09T04:43:56.576Z,99.90
2022-10-09T04:46:25.539Z,99.90
2022-10-09T04:48:53.833Z,99.90
2022-10-09T04:51:22.783Z,99.90
2022-10-09T04:53:51.090Z,99.90
2022-10-09T04:56:22.723Z,99.90
2022-10-09T04:58:51.867Z,99.90
2022-10-09T05:01:23.154Z,99.90
2022-10-09T05:03:53.000Z,99.90
2022-10-09T05:06:23.540Z,99.90
2022-10-09T05:08:53.375Z,99.90
2022-10-09T05:11:26.701Z,99.90
2022-10-09T05:13:58.712Z,99.90
2022-10-09T05:16:31.898Z,99.90
2022-10-09T05:19:01.258Z,99.90
2022-10-09T05:21:31.099Z,99.90
2022-10-09T05:23:59.486Z,99.90
2022-10-09T05:26:29.360Z,99.90
2022-10-09T05:28:58.098Z,99.90
2022-10-09T05:31:31.800Z,99.90
2022-10-09T05:34:02.164Z,99.90
2022-10-09T05:36:30.835Z,99.90
2022-10-09T05:39:01.585Z,99.90
2022-10-09T05:41:31.565Z,99.90
2022-10-09T05:44:03.737Z,99.90
2022-10-09T05:46:32.534Z,99.90
2022-10-09T05:49:05.263Z,99.90
2022-10-09T05:51:36.271Z,99.90
2022-10-09T05:54:06.199Z,99.90
2022-10-09T05:56:38.903Z,99.90
2022-10-09T05:59:10.524Z,99.90
2022-10-09T06:01:41.323Z,99.90
2022-10-09T06:04:15.189Z,99.90
2022-10-09T06:06:44.876Z,99.90
2022-10-09T06:09:14.537Z,99.90
2022-10-09T06:11:45.372Z,99.90
2022-10-09T06:14:14.894Z,99.90
2022-10-09T06:16:46.593Z,99.90
2022-10-09T06:19:17.756Z,99.90
2022-10-09T06:21:48.143Z,99.90
2022-10-09T06:24:25.869Z,99.90
2022-10-09T06:26:58.873Z,99.90
2022-10-09T06:29:27.996Z,99.90
2022-10-09T06:31:56.349Z,99.90
2022-10-09T06:34:24.755Z,99.90
2022-10-09T06:36:53.387Z,99.90
2022-10-09T06:39:22.634Z,99.90
2022-10-09T06:41:50.914Z,99.90
2022-10-09T06:44:43.487Z,99.90
2022-10-09T06:47:11.710Z,99.90
2022-10-09T06:49:40.272Z,99.90
2022-10-09T06:52:08.422Z,99.90
2022-10-09T06:54:37.119Z,99.90
2022-10-09T06:57:05.563Z,99.90
2022-10-09T06:59:34.042Z,99.90
2022-10-09T07:16:44.089Z,99.90
2022-10-09T07:19:14.631Z,99.90
2022-10-09T07:21:47.193Z,99.90
2022-10-09T07:24:16.572Z,99.90
2022-10-09T07:26:48.063Z,99.90
2022-10-09T07:29:19.098Z,99.90
2022-10-09T07:31:49.862Z,99.90
2022-10-09T07:34:18.224Z,99.90
2022-10-09T07:36:47.121Z,99.90
2022-10-09T07:39:15.449Z,99.90
2022-10-09T07:41:44.470Z,99.90
2022-10-09T07:44:13.608Z,99.90
2022-10-09T07:46:41.913Z,99.90
2022-10-09T07:49:12.495Z,99.90
2022-10-09T07:51:41.037Z,99.90
2022-10-09T07:54:09.272Z,99.90
2022-10-09T07:56:39.246Z,99.90
2022-10-09T07:59:12.715Z,99.90
2022-10-09T08:01:41.665Z,99.90
2022-10-09T08:04:11.970Z,99.90
2022-10-09T08:06:40.318Z,99.90
2022-10-09T08:09:10.068Z,99.90
2022-10-09T08:11:41.465Z,99.90
2022-10-09T08:14:19.010Z,99.90
2022-10-09T08:16:48.649Z,99.90
2022-10-09T08:19:18.350Z,99.90
2022-10-09T08:21:47.062Z,99.90
2022-10-09T08:24:15.581Z,99.90
2022-10-09T08:26:44.255Z,99.90
2022-10-09T08:29:14.064Z,99.90
2022-10-09T08:31:42.690Z,99.90
2022-10-09T08:34:12.294Z,99.90
2022-10-09T08:36:42.001Z,99.90
2022-10-09T08:39:10.462Z,99.90
2022-10-09T08:41:47.875Z,99.90
2022-10-09T08:44:22.096Z,99.90
2022-10-09T08:47:06.551Z,99.90
2022-10-09T08:49:45.781Z,99.90
2022-10-09T08:52:29.602Z,99.90
2022-10-09T08:55:07.498Z,99.90
2022-10-09T08:57:36.487Z,99.90
2022-10-09T09:00:14.493Z,99.90
2022-10-09T09:03:09.315Z,99.90
2022-10-09T09:05:48.186Z,99.90
2022-10-09T09:08:33.408Z,99.90
2022-10-09T09:11:21.788Z,99.90
2022-10-09T09:14:09.429Z,99.90
2022-10-09T09:16:44.611Z,99.90
2022-10-09T09:19:43.948Z,99.90
2022-10-09T09:22:15.947Z,99.90
2022-10-09T09:24:52.381Z,99.90
2022-10-09T09:27:24.580Z,99.90
2022-10-09T09:30:02.608Z,99.90
2022-10-09T09:32:34.879Z,99.90
2022-10-09T09:35:16.272Z,99.90
2022-10-09T09:37:44.969Z,99.90
2022-10-09T09:40:36.249Z,99.90
2022-10-09T09:43:16.788Z,99.90
2022-10-09T09:45:46.312Z,99.90
2022-10-09T09:48:20.030Z,99.90
2022-10-09T09:51:10.135Z,99.90
2022-10-09T09:53:46.997Z,99.90
2022-10-09T09:56:17.408Z,99.90
2022-10-09T09:58:49.287Z,99.90
2022-10-09T10:01:25.488Z,99.90
2022-10-09T10:03:57.194Z,99.90
2022-10-09T10:06:30.826Z,99.90
2022-10-09T10:09:02.553Z,99.90
2022-10-09T10:11:35.783Z,99.90
2022-10-09T10:14:08.437Z,99.90
2022-10-09T10:16:40.074Z,99.90
2022-10-09T10:19:22.784Z,99.90
2022-10-09T10:21:58.551Z,99.90
2022-10-09T10:24:33.668Z,99.90
2022-10-09T10:27:15.364Z,99.90
2022-10-09T10:29:47.889Z,99.90
2022-10-09T10:32:23.930Z,99.90
2022-10-09T10:35:02.288Z,99.90
2022-10-09T10:37:43.181Z,99.90
2022-10-09T10:40:21.547Z,99.90
2022-10-09T10:43:05.083Z,99.90
2022-10-09T10:45:42.229Z,99.90
2022-10-09T10:48:19.125Z,99.90
2022-10-09T10:51:03.017Z,99.90
2022-10-09T10:53:53.762Z,99.90
2022-10-09T10:56:31.344Z,99.90
2022-10-09T10:59:26.517Z,99.90
2022-10-09T11:02:16.601Z,99.90
2022-10-09T11:04:54.018Z,99.90
2022-10-09T11:07:35.186Z,99.90
2022-10-09T11:10:17.294Z,99.90
2022-10-09T11:12:56.273Z,99.90
2022-10-09T11:15:38.904Z,99.90
2022-10-09T11:18:31.840Z,99.60
2022-10-09T11:21:25.086Z,98.70
2022-10-09T11:24:16.031Z,97.00
2022-10-09T11:26:54.447Z,96.60
2022-10-09T11:29:31.513Z,95.00
2022-10-09T11:32:09.142Z,94.40
2022-10-09T11:34:44.662Z,93.20
2022-10-09T11:37:21.785Z,92.90
2022-10-09T11:39:51.245Z,92.80
2022-10-09T11:42:25.587Z,91.60
2022-10-09T11:45:07.894Z,90.00
2022-10-09T11:47:50.021Z,90.10
2022-10-09T11:50:38.536Z,90.00
2022-10-09T11:53:12.652Z,90.10
2022-10-09T11:55:41.504Z,89.50
2022-10-09T11:58:21.434Z,86.90
2022-10-09T12:00:54.839Z,85.80
2022-10-09T12:03:34.090Z,83.90
2022-10-09T12:06:11.552Z,83.00
2022-10-09T12:08:44.464Z,82.20
2022-10-09T12:11:20.151Z,82.20
2022-10-09T12:13:53.211Z,80.80
2022-10-09T12:16:44.535Z,79.40
2022-10-09T12:19:23.322Z,79.70
2022-10-09T12:22:05.443Z,78.70
2022-10-09T12:24:41.176Z,78.80
2022-10-09T12:27:18.628Z,77.80
2022-10-09T12:29:54.610Z,75.90
2022-10-09T12:32:31.333Z,75.50
2022-10-09T12:35:12.666Z,74.80
2022-10-09T12:37:40.780Z,72.40
2022-10-09T12:40:15.700Z,70.70
2022-10-09T12:42:46.117Z,69.80
2022-10-09T12:45:20.691Z,70.50
2022-10-09T12:47:49.381Z,68.80
2022-10-09T12:50:27.865Z,69.10
2022-10-09T12:53:00.124Z,69.70
2022-10-09T12:55:34.118Z,70.70
2022-10-09T12:58:07.101Z,70.40
2022-10-09T13:00:37.229Z,70.20
2022-10-09T13:03:05.514Z,70.40
2022-10-09T13:05:39.857Z,67.80
2022-10-09T13:08:24.753Z,67.80
2022-10-09T13:10:55.116Z,67.40
2022-10-09T13:13:27.344Z,68.10
2022-10-09T13:16:07.109Z,68.10
2022-10-09T13:18:35.352Z,68.00
2022-10-09T13:21:20.732Z,67.50
2022-10-09T13:23:50.117Z,65.80
2022-10-09T13:26:26.054Z,66.70
2022-10-09T13:28:58.315Z,66.40
2022-10-09T13:31:26.857Z,68.40
2022-10-09T13:33:55.759Z,67.30
2022-10-09T13:36:25.788Z,67.60
2022-10-09T13:38:54.005Z,67.40
2022-10-09T13:41:26.058Z,67.00
2022-10-09T13:43:55.615Z,68.20
2022-10-09T13:46:24.227Z,67.70
2022-10-09T13:48:52.436Z,68.30
2022-10-09T13:51:20.667Z,69.00
2022-10-09T13:53:51.450Z,68.30
2022-10-09T13:56:19.737Z,69.00
2022-10-09T13:58:48.562Z,69.70
2022-10-09T14:01:16.946Z,68.70
2022-10-09T14:03:46.100Z,68.30
2022-10-09T14:06:14.268Z,68.10
2022-10-09T14:08:43.509Z,69.30
2022-10-09T14:11:12.969Z,70.60
2022-10-09T14:13:42.055Z,69.90
2022-10-09T14:16:12.428Z,71.80
2022-10-09T14:18:41.037Z,72.90
2022-10-09T14:21:14.825Z,75.10
2022-10-09T14:23:44.381Z,77.70
2022-10-09T14:26:13.924Z,80.20
2022-10-09T14:28:42.268Z,82.60
2022-10-09T14:31:10.893Z,83.80
2022-10-09T14:33:39.415Z,85.30
2022-10-09T14:36:09.863Z,85.50
2022-10-09T14:38:38.985Z,86.60
2022-10-09T14:41:09.098Z,88.80
2022-10-09T14:43:39.056Z,89.70
2022-10-09T14:46:13.187Z,89.70
2022-10-09T14:48:41.899Z,90.40
2022-10-09T14:51:14.724Z,90.60
2022-10-09T14:53:43.724Z,91.30
2022-10-09T14:56:15.257Z,91.50
2022-10-09T14:58:46.171Z,92.00
2022-10-09T15:01:17.548Z,92.00
2022-10-09T15:03:48.143Z,92.50
2022-10-09T15:06:20.584Z,92.30
2022-10-09T15:08:48.729Z,92.70
2022-10-09T15:11:17.419Z,92.80
2022-10-09T15:13:47.613Z,93.10
2022-10-09T15:16:18.113Z,93.40
2022-10-09T15:18:52.360Z,93.90
2022-10-09T15:21:23.783Z,93.80
2022-10-09T15:23:54.721Z,93.90
2022-10-09T15:26:24.025Z,94.30
2022-10-09T15:28:53.901Z,94.60
2022-10-09T15:31:26.879Z,94.80
2022-10-09T15:33:58.100Z,94.80
2022-10-09T15:36:27.065Z,94.70
2022-10-09T15:38:56.636Z,95.10
2022-10-09T15:41:28.421Z,95.40
2022-10-09T15:44:01.049Z,95.60
2022-10-09T15:46:30.370Z,95.90
2022-10-09T15:48:58.643Z,96.00
2022-10-09T15:51:29.242Z,96.30
2022-10-09T15:54:00.012Z,96.40
2022-10-09T15:56:29.940Z,96.60
2022-10-09T15:59:00.053Z,96.70
2022-10-09T16:10:56.724Z,97.80
2022-10-09T16:13:27.930Z,98.40
2022-10-09T16:15:58.682Z,98.80
2022-10-09T16:18:27.170Z,99.10
2022-10-09T16:20:55.513Z,99.60
2022-10-09T16:23:24.409Z,99.60
2022-10-09T16:25:59.981Z,99.80
2022-10-09T16:28:29.737Z,99.90
2022-10-09T16:30:59.473Z,99.90
2022-10-09T16:33:28.288Z,99.90
2022-10-09T16:36:07.742Z,99.90
2022-10-09T16:38:36.412Z,99.90
2022-10-09T16:41:08.946Z,99.90
2022-10-09T16:43:38.954Z,99.90
2022-10-09T16:46:14.132Z,99.90
2022-10-09T16:48:42.434Z,99.90
2022-10-09T16:51:12.821Z,99.90
2022-10-09T16:53:42.361Z,99.90
2022-10-09T16:56:14.724Z,99.90
2022-10-09T16:58:45.279Z,99.90
2022-10-09T17:01:15.892Z,99.90
2022-10-09T17:03:44.224Z,99.90
2022-10-09T17:06:16.175Z,99.90
2022-10-09T17:08:44.669Z,99.90
2022-10-09T17:12:54.387Z,99.90
2022-10-09T18:20:54.398Z,99.90
2022-10-09T19:56:42.292Z,99.90
2022-10-09T19:59:10.856Z,99.90
2022-10-09T20:02:01.066Z,99.90
2022-10-09T21:26:49.441Z,99.90
2022-10-09T21:29:18.225Z,99.90
2022-10-09T21:31:46.496Z,99.90
2022-10-09T21:34:14.726Z,99.90
2022-10-09T21:37:08.921Z,99.90
2022-10-09T21:39:35.551Z,99.90
2022-10-09T21:42:05.596Z,99.90
2022-10-09T21:44:33.754Z,99.90
2022-10-09T21:47:01.861Z,99.90
2022-10-09T21:49:30.117Z,99.90
2022-10-09T21:51:58.757Z,99.90
2022-10-09T21:54:27.723Z,99.90
2022-10-09T21:56:56.280Z,99.90
2022-10-09T21:59:25.707Z,99.90
2022-10-09T22:01:54.473Z,99.90
2022-10-09T22:04:22.609Z,99.90
2022-10-09T22:06:51.333Z,99.90
2022-10-09T22:09:19.494Z,99.90
2022-10-09T22:11:47.925Z,99.90
2022-10-09T22:14:16.771Z,99.90
2022-10-09T22:16:46.844Z,99.90
2022-10-09T22:19:15.096Z,99.90
2022-10-09T22:21:44.233Z,99.90
2022-10-09T22:24:12.377Z,99.90
2022-10-09T22:26:40.859Z,99.90
2022-10-09T22:29:08.983Z,99.90
2022-10-09T22:31:37.739Z,99.90
2022-10-09T22:34:07.713Z,99.90
2022-10-09T22:36:35.914Z,99.90
2022-10-09T22:39:07.931Z,99.90
2022-10-09T22:41:37.067Z,99.90
2022-10-09T22:44:09.466Z,99.90
2022-10-09T22:46:42.257Z,99.90
2022-10-09T22:49:16.263Z,99.90
2022-10-09T22:51:45.250Z,99.90
2022-10-09T22:54:14.783Z,99.90
2022-10-09T22:56:46.087Z,99.90
2022-10-09T22:59:17.927Z,99.90
2022-10-09T23:01:51.726Z,99.90
2022-10-09T23:04:23.049Z,99.90
2022-10-09T23:06:54.317Z,99.90
2022-10-09T23:09:24.906Z,99.90
2022-10-09T23:11:53.976Z,99.90
2022-10-09T23:14:22.958Z,99.90
2022-10-09T23:16:51.178Z,99.90
2022-10-09T23:19:21.127Z,99.90
2022-10-09T23:21:49.347Z,99.90
2022-10-09T23:24:18.069Z,99.90
2022-10-09T23:26:47.948Z,99.90
2022-10-09T23:29:19.935Z,99.90
2022-10-09T23:31:49.501Z,99.90
2022-10-09T23:34:17.638Z,99.90
2022-10-09T23:36:47.726Z,99.90
2022-10-09T23:39:16.201Z,99.90
2022-10-09T23:41:44.474Z,99.90
2022-10-09T23:44:12.568Z,99.90
2022-10-09T23:46:41.851Z,99.90
2022-10-09T23:49:11.623Z,99.90
2022-10-09T23:51:39.749Z,99.90
2022-10-09T23:54:10.364Z,99.90
2022-10-09T23:56:38.975Z,99.90
2022-10-09T23:59:08.644Z,99.90
